Time;durP1;ratioP1;P1;durP2;ratioP2;P2;SDS_P1;SDS_P2;PMS_P1;PMS_P2;Temp;Humidity;BMP_temperature;BMP_pressure;BME280_temperature;BME280_humidity;BME280_pressure;Samples;Min_cycle;Max_cycle;Signal;HPM_P1;HPM_P2
2021/09/30 00:00:21;;;;;;;2.17;1.90;;;;;21.20;101228.00;;;;2077615;28;20563;-55
2021/09/30 00:01:21;;;;;;;2.93;1.67;;;;;21.20;101236.00;;;;2078266;28;20217;-56
2021/09/30 00:02:22;;;;;;;2.20;1.70;;;;;21.20;101232.00;;;;2078462;28;20232;-57
2021/09/30 00:03:23;;;;;;;2.37;1.93;;;;;21.20;101240.00;;;;2078813;28;20216;-57
2021/09/30 00:04:23;;;;;;;2.00;1.40;;;;;21.20;101236.00;;;;2078056;28;20209;-55
2021/09/30 00:05:25;;;;;;;2.53;1.33;;;;;21.20;101227.00;;;;2078173;28;20320;-56
2021/09/30 00:06:25;;;;;;;3.17;1.70;;;;;21.20;101227.00;;;;2081721;28;20288;-56
2021/09/30 00:07:26;;;;;;;3.13;1.40;;;;;21.10;101229.00;;;;2080867;28;20250;-56
2021/09/30 00:08:27;;;;;;;2.80;1.70;;;;;21.10;101235.00;;;;2077327;28;20305;-56
2021/09/30 00:09:27;;;;;;;1.70;1.43;;;;;21.20;101230.00;;;;2078730;28;20671;-54
2021/09/30 00:10:28;;;;;;;2.23;1.57;;;;;21.20;101219.00;;;;2080993;28;20590;-55
2021/09/30 00:11:31;;;;;;;1.90;1.50;;;;;21.10;101222.00;;;;2078790;28;20202;-55
2021/09/30 00:12:35;;;;;;;2.08;1.48;;;;;21.10;101232.00;;;;2078790;28;20666;-54
2021/09/30 00:14:03;;;;;;;2.05;1.25;;;;;21.20;101233.00;;;;2083012;28;20221;-57
2021/09/30 00:15:04;;;;;;;2.10;1.40;;;;;21.20;101234.00;;;;2086468;28;20216;-55
2021/09/30 00:17:34;;;;;;;5.07;1.17;;;;;21.20;101236.00;;;;2078490;28;20210;-54
2021/09/30 00:34:22;;;;;;;1.85;1.40;;;;;21.10;101248.00;;;;2079876;28;20221;-57
2021/09/30 00:45:25;;;;;;;3.07;1.57;;;;;21.10;101247.00;;;;2088216;28;20217;-54
2021/09/30 00:46:28;;;;;;;2.13;1.30;;;;;21.10;101249.00;;;;2079006;28;20214;-54
2021/09/30 00:47:39;;;;;;;2.10;1.02;;;;;21.10;101253.00;;;;2079353;28;20743;-55
2021/09/30 00:51:54;;;;;;;2.10;1.10;;;;;21.00;101257.00;;;;2079747;28;20304;-55
2021/09/30 00:55:08;;;;;;;2.00;1.38;;;;;21.10;101259.00;;;;2082824;28;20216;-56
2021/09/30 01:18:25;;;;;;;1.63;1.20;;;;;21.00;101260.00;;;;2088413;28;20673;-55
2021/09/30 01:19:34;;;;;;;1.40;1.05;;;;;21.00;101269.00;;;;2092779;28;20212;-56
2021/09/30 01:40:12;;;;;;;1.42;0.82;;;;;21.00;101299.00;;;;2084594;28;20233;-55
2021/09/30 02:29:25;;;;;;;1.83;1.17;;;;;20.90;101293.00;;;;2085483;28;20307;-55
2021/09/30 02:30:53;;;;;;;1.98;1.10;;;;;20.90;101320.00;;;;2095312;28;20635;-54
2021/09/30 02:58:15;;;;;;;1.95;0.80;;;;;20.80;101318.00;;;;2093783;28;20642;-57
2021/09/30 02:59:16;;;;;;;2.05;0.90;;;;;20.70;101322.00;;;;2092982;28;20207;-56
2021/09/30 03:00:17;;;;;;;2.00;0.82;;;;;20.80;101308.00;;;;2086762;28;20319;-55
2021/09/30 03:01:20;;;;;;;2.10;1.07;;;;;20.80;101321.00;;;;2093357;28;20220;-56
2021/09/30 03:02:20;;;;;;;1.13;0.77;;;;;20.80;101320.00;;;;2094263;28;20240;-56
2021/09/30 03:03:21;;;;;;;2.30;0.90;;;;;20.80;101322.00;;;;2094078;28;20678;-55
2021/09/30 03:04:22;;;;;;;2.38;1.02;;;;;20.80;101319.00;;;;2094575;28;20211;-56
2021/09/30 03:05:22;;;;;;;2.87;0.90;;;;;20.80;101325.00;;;;2086179;28;20580;-56
2021/09/30 03:06:22;;;;;;;1.47;0.90;;;;;20.80;101329.00;;;;2084951;28;20225;-56
2021/09/30 03:07:23;;;;;;;2.60;0.80;;;;;20.80;101294.00;;;;2082612;28;20251;-57
2021/09/30 03:08:25;;;;;;;0.90;0.60;;;;;20.80;101319.00;;;;2077604;28;20730;-55
2021/09/30 03:09:37;;;;;;;1.55;0.88;;;;;20.80;101325.00;;;;2087028;28;20227;-54
2021/09/30 03:10:38;;;;;;;2.10;0.88;;;;;20.80;101323.00;;;;2095293;28;20204;-55
2021/09/30 03:11:40;;;;;;;1.30;0.80;;;;;20.80;101327.00;;;;2094642;28;20730;-59
2021/09/30 03:12:41;;;;;;;2.47;1.00;;;;;20.80;101324.00;;;;2092513;28;20670;-54
2021/09/30 03:13:46;;;;;;;2.40;0.83;;;;;20.80;101327.00;;;;2093413;28;20231;-56
2021/09/30 03:14:57;;;;;;;1.60;0.93;;;;;20.80;101334.00;;;;2094502;28;20266;-54
2021/09/30 03:16:05;;;;;;;1.55;0.93;;;;;20.80;101332.00;;;;2094300;28;20228;-54
2021/09/30 03:17:06;;;;;;;1.95;0.80;;;;;20.80;101326.00;;;;2094558;28;20212;-55
2021/09/30 03:20:26;;;;;;;2.97;0.90;;;;;20.80;101319.00;;;;2093370;28;20228;-55
2021/09/30 03:20:48;;;;;;;1.40;0.82;;;;;20.80;101329.00;;;;2081112;28;20464;-57
2021/09/30 03:23:09;;;;;;;2.28;1.00;;;;;20.80;101320.00;;;;2080111;28;20216;-54
2021/09/30 03:24:10;;;;;;;2.10;0.90;;;;;20.80;101326.00;;;;2083788;28;20224;-55
2021/09/30 03:25:10;;;;;;;1.20;0.73;;;;;20.80;101324.00;;;;2090219;28;20310;-57
2021/09/30 03:26:11;;;;;;;2.17;0.90;;;;;20.80;101332.00;;;;2086551;28;20568;-56
2021/09/30 03:27:11;;;;;;;2.40;1.20;;;;;20.80;101326.00;;;;2086131;28;20213;-57
2021/09/30 03:28:11;;;;;;;1.83;1.00;;;;;20.80;101327.00;;;;2085215;28;20705;-57
2021/09/30 03:29:12;;;;;;;2.40;1.00;;;;;20.80;101326.00;;;;2083610;28;20212;-55
2021/09/30 03:30:13;;;;;;;1.33;0.80;;;;;20.80;101331.00;;;;2086140;28;20304;-53
2021/09/30 03:31:13;;;;;;;2.17;0.90;;;;;20.80;101321.00;;;;2088378;28;20944;-54
2021/09/30 03:32:13;;;;;;;3.13;0.90;;;;;20.80;101336.00;;;;2086073;28;20209;-55
2021/09/30 03:33:14;;;;;;;1.30;0.70;;;;;20.80;101335.00;;;;2085654;28;20216;-56
2021/09/30 03:34:15;;;;;;;1.53;0.73;;;;;20.80;101329.00;;;;2085933;28;20231;-55
2021/09/30 03:35:15;;;;;;;2.15;1.60;;;;;20.80;101334.00;;;;2092682;28;20693;-57
2021/09/30 03:36:16;;;;;;;1.30;0.90;;;;;20.80;101334.00;;;;2093247;28;20223;-56
2021/09/30 03:37:16;;;;;;;2.20;0.90;;;;;20.70;101334.00;;;;2087607;28;20705;-55
2021/09/30 03:38:16;;;;;;;1.67;0.90;;;;;20.80;101333.00;;;;2070643;28;20273;-55
2021/09/30 03:39:23;;;;;;;3.47;0.90;;;;;20.80;101333.00;;;;2077680;28;20284;-55
2021/09/30 03:40:24;;;;;;;2.55;1.05;;;;;20.70;101335.00;;;;2086638;28;20217;-56
2021/09/30 03:41:25;;;;;;;2.35;1.00;;;;;20.80;101334.00;;;;2087025;28;20220;-56
2021/09/30 03:42:25;;;;;;;2.60;1.13;;;;;20.80;101338.00;;;;2094479;28;20385;-55
2021/09/30 03:43:26;;;;;;;2.83;1.17;;;;;20.70;101339.00;;;;2087006;28;20299;-55
2021/09/30 03:44:27;;;;;;;1.90;1.08;;;;;20.70;101341.00;;;;2086705;28;20212;-54
2021/09/30 03:45:27;;;;;;;2.07;0.80;;;;;20.70;101338.00;;;;2095032;28;20208;-55
2021/09/30 03:46:27;;;;;;;1.17;0.80;;;;;20.70;101346.00;;;;2094510;28;20204;-55
2021/09/30 03:47:28;;;;;;;2.20;0.97;;;;;20.80;101346.00;;;;2088955;28;20219;-56
2021/09/30 03:48:28;;;;;;;2.20;0.87;;;;;20.70;101339.00;;;;2095186;28;20236;-56
2021/09/30 03:49:31;;;;;;;1.50;0.83;;;;;20.80;101347.00;;;;2091158;28;20744;-54
2021/09/30 03:51:28;;;;;;;2.83;1.00;;;;;20.70;101343.00;;;;2086253;28;20227;-57
2021/09/30 03:51:59;;;;;;;1.23;0.75;;;;;20.70;101349.00;;;;2086438;28;20236;-55
2021/09/30 03:53:05;;;;;;;1.60;0.93;;;;;20.70;101344.00;;;;2094630;28;20204;-55
2021/09/30 03:54:21;;;;;;;1.45;0.90;;;;;20.70;101342.00;;;;2094409;28;20288;-55
2021/09/30 03:55:31;;;;;;;1.40;0.70;;;;;20.70;101347.00;;;;2095084;28;20302;-57
2021/09/30 03:56:48;;;;;;;1.95;0.90;;;;;20.70;101344.00;;;;2095272;28;20212;-55
2021/09/30 04:00:08;;;;;;;1.85;1.13;;;;;20.70;101358.00;;;;2085474;28;20292;-56
2021/09/30 04:01:08;;;;;;;1.60;1.00;;;;;20.70;101357.00;;;;2093768;28;20224;-56
2021/09/30 04:02:09;;;;;;;1.73;0.93;;;;;20.70;101360.00;;;;2093199;28;20291;-56
2021/09/30 04:03:09;;;;;;;2.80;0.90;;;;;20.80;101359.00;;;;2091402;28;20681;-54
2021/09/30 04:04:09;;;;;;;2.10;1.03;;;;;20.70;101352.00;;;;2094978;28;20642;-55
2021/09/30 04:05:11;;;;;;;2.40;1.10;;;;;20.70;101352.00;;;;2095304;28;20238;-55
2021/09/30 04:06:12;;;;;;;2.85;1.20;;;;;20.70;101363.00;;;;2093590;28;20708;-55
2021/09/30 04:07:12;;;;;;;3.13;1.50;;;;;20.70;101360.00;;;;2080363;28;20273;-56
2021/09/30 04:08:13;;;;;;;2.00;1.00;;;;;20.70;101350.00;;;;2088074;28;20455;-54
2021/09/30 04:09:13;;;;;;;1.80;1.00;;;;;20.70;101355.00;;;;2090180;28;20212;-54
2021/09/30 04:10:13;;;;;;;2.07;1.17;;;;;20.70;101357.00;;;;2095992;28;20692;-54
2021/09/30 04:11:14;;;;;;;1.70;1.13;;;;;20.70;101346.00;;;;2082349;28;20284;-54
2021/09/30 04:12:14;;;;;;;2.13;0.90;;;;;20.70;101352.00;;;;2088943;28;20697;-56
2021/09/30 04:13:14;;;;;;;1.80;1.10;;;;;20.70;101352.00;;;;2088847;28;20784;-55
2021/09/30 04:14:15;;;;;;;1.97;0.87;;;;;20.70;101358.00;;;;2091101;28;20326;-56
2021/09/30 04:15:15;;;;;;;2.50;1.10;;;;;20.70;101363.00;;;;2089862;28;20622;-55
2021/09/30 04:16:16;;;;;;;1.77;1.00;;;;;20.70;101359.00;;;;2088673;28;20268;-56
2021/09/30 04:17:16;;;;;;;2.20;1.00;;;;;20.70;101360.00;;;;2088839;28;20254;-56
2021/09/30 04:18:18;;;;;;;2.57;1.10;;;;;20.60;101364.00;;;;2089235;28;20228;-53
2021/09/30 04:19:19;;;;;;;1.95;1.10;;;;;20.70;101367.00;;;;2094872;28;20616;-56
2021/09/30 04:20:19;;;;;;;2.47;1.13;;;;;20.70;101370.00;;;;2094795;28;20212;-59
2021/09/30 04:21:23;;;;;;;2.23;1.10;;;;;20.70;101365.00;;;;2086225;28;20240;-57
2021/09/30 04:22:24;;;;;;;2.45;1.80;;;;;20.70;101364.00;;;;2094974;28;20223;-55
2021/09/30 04:23:25;;;;;;;2.10;1.20;;;;;20.70;101362.00;;;;2095443;28;20216;-56
2021/09/30 04:24:26;;;;;;;2.07;0.97;;;;;20.70;101359.00;;;;2096706;28;20236;-55
2021/09/30 04:25:26;;;;;;;1.30;0.90;;;;;20.70;101361.00;;;;2097022;28;20572;-54
2021/09/30 04:26:26;;;;;;;1.53;1.10;;;;;20.70;101366.00;;;;2096944;28;20463;-55
2021/09/30 04:27:27;;;;;;;2.00;1.00;;;;;20.70;101365.00;;;;2095586;28;20204;-56
2021/09/30 04:28:28;;;;;;;1.60;1.10;;;;;20.70;101368.00;;;;2093833;28;20243;-55
2021/09/30 04:29:28;;;;;;;3.08;1.30;;;;;20.70;101367.00;;;;2086704;28;20217;-55
2021/09/30 04:30:29;;;;;;;1.53;0.83;;;;;20.70;101366.00;;;;2087841;28;20219;-54
2021/09/30 04:31:29;;;;;;;2.10;1.00;;;;;20.70;101372.00;;;;2091179;28;20220;-56
2021/09/30 04:32:30;;;;;;;1.90;1.10;;;;;20.60;101373.00;;;;2088458;28;20212;-54
2021/09/30 04:33:30;;;;;;;2.53;1.30;;;;;20.70;101378.00;;;;2089026;28;20720;-53
2021/09/30 04:34:30;;;;;;;1.87;1.07;;;;;20.60;101372.00;;;;2096796;28;20212;-55
2021/09/30 04:35:31;;;;;;;3.77;0.97;;;;;20.60;101370.00;;;;2096760;28;20223;-55
2021/09/30 04:36:32;;;;;;;1.93;0.80;;;;;20.60;101382.00;;;;2093608;28;20303;-56
2021/09/30 04:37:32;;;;;;;2.47;0.90;;;;;20.60;101377.00;;;;2089565;28;20216;-54
2021/09/30 04:38:32;;;;;;;1.93;0.90;;;;;20.60;101373.00;;;;2088749;28;20447;-55
2021/09/30 04:39:33;;;;;;;2.30;0.90;;;;;20.60;101386.00;;;;2086167;28;20290;-53
2021/09/30 04:40:33;;;;;;;2.63;1.03;;;;;20.60;101382.00;;;;2087817;28;20208;-55
2021/09/30 04:41:34;;;;;;;2.20;1.10;;;;;20.60;101385.00;;;;2087949;28;20221;-55
2021/09/30 04:42:34;;;;;;;1.80;1.00;;;;;20.60;101384.00;;;;2088084;28;20213;-56
2021/09/30 04:43:34;;;;;;;2.63;1.20;;;;;20.60;101388.00;;;;2095864;28;20208;-56
2021/09/30 04:44:35;;;;;;;2.13;1.00;;;;;20.60;101382.00;;;;2096042;28;20295;-54
2021/09/30 04:45:35;;;;;;;2.73;1.20;;;;;20.60;101377.00;;;;2095684;28;20257;-55
2021/09/30 04:46:36;;;;;;;1.40;1.10;;;;;20.60;101385.00;;;;2086519;28;20298;-56
2021/09/30 04:47:37;;;;;;;2.97;1.30;;;;;20.60;101383.00;;;;2094818;28;20323;-55
2021/09/30 04:48:37;;;;;;;2.60;1.10;;;;;20.60;101382.00;;;;2095893;28;20209;-56
2021/09/30 04:49:39;;;;;;;2.57;1.50;;;;;20.60;101388.00;;;;2090467;28;20458;-56
2021/09/30 04:50:43;;;;;;;2.80;1.25;;;;;20.60;101375.00;;;;2079674;28;20209;-57
2021/09/30 04:51:43;;;;;;;1.45;0.90;;;;;20.60;101390.00;;;;2075548;28;20221;-57
2021/09/30 04:52:44;;;;;;;2.43;1.37;;;;;20.60;101385.00;;;;2095532;28;20304;-57
2021/09/30 04:53:45;;;;;;;2.47;1.30;;;;;20.60;101392.00;;;;2096286;28;20670;-57
2021/09/30 04:54:46;;;;;;;2.65;1.20;;;;;20.60;101390.00;;;;2095840;28;20271;-56
2021/09/30 04:55:47;;;;;;;1.20;0.80;;;;;20.60;101392.00;;;;2096002;28;20220;-54
2021/09/30 04:56:47;;;;;;;3.20;1.33;;;;;20.60;101397.00;;;;2096372;28;20634;-56
2021/09/30 04:57:47;;;;;;;2.70;1.40;;;;;20.60;101393.00;;;;2092630;28;20569;-55
2021/09/30 04:58:48;;;;;;;1.47;1.00;;;;;20.60;101393.00;;;;2095358;28;20220;-56
2021/09/30 04:59:48;;;;;;;2.20;1.53;;;;;20.60;101392.00;;;;2093571;28;20203;-57
2021/09/30 05:00:49;;;;;;;3.17;1.17;;;;;20.60;101392.00;;;;2104219;28;20215;-57
2021/09/30 05:01:50;;;;;;;2.07;1.37;;;;;20.60;101392.00;;;;2097196;28;20305;-56
2021/09/30 05:02:50;;;;;;;2.40;1.45;;;;;20.60;101411.00;;;;2095249;28;20212;-55
2021/09/30 05:03:51;;;;;;;2.60;1.30;;;;;20.60;101396.00;;;;2095863;28;20652;-56
2021/09/30 05:04:51;;;;;;;4.20;1.10;;;;;20.60;101397.00;;;;2096258;28;20220;-54
2021/09/30 05:05:51;;;;;;;2.30;1.10;;;;;20.60;101398.00;;;;2096425;28;20208;-55
2021/09/30 05:06:52;;;;;;;2.70;1.20;;;;;20.60;101395.00;;;;2089366;28;20716;-54
2021/09/30 05:07:52;;;;;;;2.80;1.40;;;;;20.60;101403.00;;;;2089716;28;20659;-57
2021/09/30 05:08:57;;;;;;;2.80;1.23;;;;;20.60;101400.00;;;;2086904;28;20225;-56
2021/09/30 05:10:01;;;;;;;1.65;1.00;;;;;20.60;101406.00;;;;2088064;28;20247;-55
2021/09/30 05:11:02;;;;;;;2.58;1.55;;;;;20.60;101406.00;;;;2088280;28;20217;-55
2021/09/30 05:12:04;;;;;;;2.03;1.08;;;;;20.60;101402.00;;;;2092265;28;20208;-55
2021/09/30 05:13:06;;;;;;;2.13;1.17;;;;;20.60;101411.00;;;;2095808;28;20200;-57
2021/09/30 05:14:07;;;;;;;2.80;1.13;;;;;20.60;101411.00;;;;2095796;28;20723;-55
2021/09/30 05:15:07;;;;;;;2.90;1.43;;;;;20.50;101407.00;;;;2096230;28;20219;-55
2021/09/30 05:16:10;;;;;;;2.50;1.40;;;;;20.50;101406.00;;;;2089012;28;20217;-55
2021/09/30 05:17:10;;;;;;;1.85;1.00;;;;;20.60;101407.00;;;;2087780;28;20464;-54
2021/09/30 05:18:11;;;;;;;4.07;1.40;;;;;20.50;101407.00;;;;2087193;28;20220;-55
2021/09/30 05:19:12;;;;;;;2.10;1.20;;;;;20.60;101411.00;;;;2086063;28;20239;-54
2021/09/30 05:20:12;;;;;;;2.30;1.07;;;;;20.60;101410.00;;;;2086258;28;20209;-55
2021/09/30 05:21:13;;;;;;;1.87;1.13;;;;;20.60;101405.00;;;;2089039;28;20217;-56
2021/09/30 05:22:13;;;;;;;2.80;1.20;;;;;20.60;101412.00;;;;2089559;28;20216;-55
2021/09/30 05:23:13;;;;;;;2.17;1.27;;;;;20.60;101417.00;;;;2089676;28;20217;-55
2021/09/30 05:24:14;;;;;;;2.07;1.10;;;;;20.60;101415.00;;;;2095409;28;20204;-54
2021/09/30 05:25:14;;;;;;;1.93;1.30;;;;;20.60;101400.00;;;;2095662;28;20212;-55
2021/09/30 05:26:15;;;;;;;2.20;1.10;;;;;20.60;101415.00;;;;2092137;28;20209;-56
2021/09/30 05:27:15;;;;;;;1.73;1.03;;;;;20.60;101411.00;;;;2087092;28;20224;-56
2021/09/30 05:28:15;;;;;;;2.30;1.30;;;;;20.60;101415.00;;;;2087433;28;20271;-54
2021/09/30 05:29:16;;;;;;;3.90;1.53;;;;;20.50;101408.00;;;;2084843;28;20209;-54
2021/09/30 05:30:16;;;;;;;1.50;1.00;;;;;20.50;101413.00;;;;2087401;28;20215;-56
2021/09/30 05:31:16;;;;;;;3.23;1.20;;;;;20.50;101410.00;;;;2089468;28;20212;-56
2021/09/30 05:32:17;;;;;;;1.87;1.10;;;;;20.60;101410.00;;;;2087475;28;20220;-55
2021/09/30 05:33:17;;;;;;;3.60;1.13;;;;;20.50;101414.00;;;;2087454;28;20216;-56
2021/09/30 05:34:18;;;;;;;2.80;1.57;;;;;20.50;101414.00;;;;2087475;28;20213;-54
2021/09/30 05:35:18;;;;;;;2.30;1.17;;;;;20.50;101410.00;;;;2085953;28;20224;-55
2021/09/30 05:36:19;;;;;;;2.90;1.33;;;;;20.50;101415.00;;;;2088648;28;20299;-55
2021/09/30 05:37:19;;;;;;;1.80;1.10;;;;;20.50;101409.00;;;;2088529;28;20221;-55
2021/09/30 05:38:19;;;;;;;2.40;1.10;;;;;20.50;101411.00;;;;2087159;28;20846;-57
2021/09/30 05:39:20;;;;;;;2.40;1.33;;;;;20.50;101415.00;;;;2085753;28;20298;-56
2021/09/30 05:40:20;;;;;;;4.20;1.47;;;;;20.50;101412.00;;;;2089263;28;20221;-54
2021/09/30 05:41:22;;;;;;;2.60;1.30;;;;;20.60;101408.00;;;;2092993;28;20220;-55
2021/09/30 05:42:25;;;;;;;5.43;1.40;;;;;20.60;101417.00;;;;2087485;28;20209;-54
2021/09/30 05:43:30;;;;;;;3.40;1.40;;;;;20.70;101410.00;;;;2087277;28;20248;-55
2021/09/30 05:44:32;;;;;;;4.43;1.10;;;;;20.70;101411.00;;;;2087481;28;20216;-55
2021/09/30 05:45:39;;;;;;;3.83;1.10;;;;;20.60;101411.00;;;;2092878;28;21185;-54
2021/09/30 05:46:45;;;;;;;3.08;1.00;;;;;20.70;101414.00;;;;2088079;28;20216;-56
2021/09/30 05:47:46;;;;;;;4.68;1.65;;;;;20.80;101414.00;;;;2091766;28;20648;-56
2021/09/30 05:48:46;;;;;;;4.33;1.40;;;;;20.80;101413.00;;;;2094488;28;20212;-56
2021/09/30 05:49:46;;;;;;;3.00;1.20;;;;;20.80;101413.00;;;;2095252;28;20224;-54
2021/09/30 05:50:47;;;;;;;1.80;1.03;;;;;20.80;101415.00;;;;2094802;28;20217;-53
2021/09/30 05:51:47;;;;;;;4.03;1.50;;;;;20.80;101413.00;;;;2095297;28;20216;-55
2021/09/30 05:52:48;;;;;;;3.00;1.50;;;;;20.70;101417.00;;;;2095408;28;20255;-57
2021/09/30 05:53:48;;;;;;;2.90;1.73;;;;;20.70;101424.00;;;;2094827;28;20227;-56
2021/09/30 05:54:50;;;;;;;2.43;1.00;;;;;20.80;101424.00;;;;2095207;28;20216;-56
2021/09/30 05:55:50;;;;;;;3.35;1.25;;;;;20.80;101422.00;;;;2095399;28;20553;-55
2021/09/30 05:56:51;;;;;;;2.23;1.20;;;;;20.80;101431.00;;;;2092390;28;20265;-55
2021/09/30 05:57:51;;;;;;;4.60;1.50;;;;;20.70;101419.00;;;;2097726;28;20295;-56
2021/09/30 05:58:51;;;;;;;3.60;1.33;;;;;20.70;101420.00;;;;2086992;28;20213;-56
2021/09/30 05:59:52;;;;;;;4.73;1.57;;;;;20.70;101428.00;;;;2089176;28;20216;-57
2021/09/30 06:09:37;;;;;;;4.80;1.20;;;;;20.60;101413.00;;;;2070068;28;20213;-54
2021/09/30 06:13:15;;;;;;;2.38;1.20;;;;;20.60;101425.00;;;;2093784;28;20246;-57
2021/09/30 06:14:27;;;;;;;3.03;1.35;;;;;20.60;101410.00;;;;2094956;28;20201;-54
2021/09/30 06:15:32;;;;;;;2.55;1.20;;;;;20.60;101421.00;;;;2095118;28;20298;-57
2021/09/30 06:16:35;;;;;;;3.60;1.60;;;;;20.60;101429.00;;;;2095623;28;20586;-55
2021/09/30 06:17:38;;;;;;;5.07;2.08;;;;;20.60;101428.00;;;;2091568;28;20220;-56
2021/09/30 06:18:38;;;;;;;3.42;2.40;;;;;20.60;101434.00;;;;2095306;28;20216;-57
2021/09/30 06:19:39;;;;;;;7.77;5.63;;;;;20.60;101421.00;;;;2093410;28;20317;-57
2021/09/30 06:20:39;;;;;;;15.03;12.10;;;;;20.60;101431.00;;;;2095221;28;20216;-54
2021/09/30 06:21:40;;;;;;;12.60;10.73;;;;;20.60;101417.00;;;;2095589;28;20232;-54
2021/09/30 06:22:40;;;;;;;26.23;20.90;;;;;20.50;101419.00;;;;2095547;28;20223;-54
2021/09/30 06:23:40;;;;;;;34.73;28.10;;;;;20.50;101426.00;;;;2094193;28;20210;-54
2021/09/30 06:24:41;;;;;;;33.40;26.30;;;;;20.60;101432.00;;;;2088673;28;20215;-56
2021/09/30 06:25:41;;;;;;;51.83;38.30;;;;;20.60;101431.00;;;;2086948;28;20217;-54
2021/09/30 06:26:42;;;;;;;56.17;45.17;;;;;20.60;101421.00;;;;2090960;28;20216;-55
2021/09/30 06:27:42;;;;;;;70.40;53.20;;;;;20.60;101419.00;;;;2095034;28;20631;-57
2021/09/30 06:28:43;;;;;;;69.00;52.30;;;;;20.60;101421.00;;;;2094704;28;20722;-54
2021/09/30 06:29:43;;;;;;;74.57;54.80;;;;;20.50;101416.00;;;;2095212;28;20295;-56
2021/09/30 06:30:43;;;;;;;81.90;57.50;;;;;20.60;101421.00;;;;2095119;28;20204;-56
2021/09/30 06:31:44;;;;;;;80.47;59.33;;;;;20.50;101423.00;;;;2089046;28;20255;-54
2021/09/30 06:32:44;;;;;;;87.43;61.73;;;;;20.60;101425.00;;;;2087022;28;20906;-54
2021/09/30 06:33:44;;;;;;;83.37;60.80;;;;;20.60;101430.00;;;;2094344;28;20208;-56
2021/09/30 06:34:45;;;;;;;70.97;52.03;;;;;20.60;101429.00;;;;2095205;28;20207;-56
2021/09/30 06:35:45;;;;;;;66.33;50.00;;;;;20.60;101423.00;;;;2095236;28;20888;-56
2021/09/30 06:36:46;;;;;;;63.90;47.00;;;;;20.50;101423.00;;;;2089721;28;20201;-56
2021/09/30 06:37:46;;;;;;;69.80;45.43;;;;;20.50;101427.00;;;;2086867;28;20227;-55
2021/09/30 06:38:46;;;;;;;69.40;51.03;;;;;20.60;101422.00;;;;2084975;28;20217;-55
2021/09/30 06:39:47;;;;;;;68.13;47.23;;;;;20.70;101421.00;;;;2087209;28;20217;-56
2021/09/30 06:40:47;;;;;;;60.03;44.60;;;;;20.70;101421.00;;;;2094072;28;20219;-55
2021/09/30 06:41:48;;;;;;;60.00;43.10;;;;;20.70;101438.00;;;;2094095;28;20223;-56
2021/09/30 06:42:48;;;;;;;63.20;43.77;;;;;20.70;101429.00;;;;2094877;28;20216;-56
2021/09/30 06:43:48;;;;;;;65.03;46.80;;;;;20.70;101435.00;;;;2095075;28;20227;-54
2021/09/30 06:44:49;;;;;;;63.83;45.30;;;;;20.70;101429.00;;;;2094670;28;20581;-55
2021/09/30 06:45:51;;;;;;;64.80;48.40;;;;;20.60;101434.00;;;;2095647;28;20216;-56
2021/09/30 06:46:51;;;;;;;63.55;49.00;;;;;20.70;101430.00;;;;2095192;28;20212;-56
2021/09/30 06:47:51;;;;;;;64.13;48.40;;;;;20.70;101425.00;;;;2095270;28;20756;-56
2021/09/30 06:48:52;;;;;;;64.30;47.27;;;;;20.70;101427.00;;;;2091624;28;20772;-56
2021/09/30 06:49:52;;;;;;;67.70;50.33;;;;;20.70;101430.00;;;;2086293;28;20213;-56
2021/09/30 06:50:52;;;;;;;63.50;48.60;;;;;20.70;101439.00;;;;2086516;28;20223;-56
2021/09/30 06:51:53;;;;;;;67.20;50.07;;;;;20.70;101388.00;;;;2087168;28;20223;-55
2021/09/30 06:52:53;;;;;;;69.47;51.20;;;;;20.70;101429.00;;;;2086973;28;20660;-57
2021/09/30 06:53:54;;;;;;;66.27;49.57;;;;;20.70;101428.00;;;;2091273;28;20307;-57
2021/09/30 06:54:54;;;;;;;66.47;50.80;;;;;20.70;101426.00;;;;2095041;28;20704;-57
2021/09/30 06:55:59;;;;;;;66.50;48.27;;;;;20.70;101435.00;;;;2095062;28;20219;-56
2021/09/30 06:57:00;;;;;;;64.93;48.70;;;;;20.70;101429.00;;;;2095072;28;20286;-55
2021/09/30 06:58:00;;;;;;;62.07;46.50;;;;;20.70;101439.00;;;;2094365;28;20296;-55
2021/09/30 06:59:05;;;;;;;63.37;47.17;;;;;20.70;101441.00;;;;2093830;28;20216;-55
2021/09/30 07:00:08;;;;;;;64.15;48.92;;;;;20.70;101436.00;;;;2095069;28;20635;-55
2021/09/30 07:01:08;;;;;;;62.92;47.53;;;;;20.70;101439.00;;;;2094522;28;20698;-55
2021/09/30 07:02:09;;;;;;;64.40;48.07;;;;;20.70;101425.00;;;;2094618;28;20213;-54
2021/09/30 07:03:09;;;;;;;63.83;47.83;;;;;20.70;101443.00;;;;2086178;28;20539;-56
2021/09/30 07:04:09;;;;;;;61.43;46.17;;;;;20.70;101440.00;;;;2077958;28;20275;-55
2021/09/30 07:05:11;;;;;;;64.10;46.27;;;;;20.70;101446.00;;;;2094358;28;20220;-56
2021/09/30 07:06:11;;;;;;;63.13;48.50;;;;;20.70;101450.00;;;;2093206;28;20215;-55
2021/09/30 07:07:11;;;;;;;60.90;45.43;;;;;20.70;101446.00;;;;2086784;28;20246;-61
2021/09/30 07:08:12;;;;;;;66.13;47.53;;;;;20.70;101446.00;;;;2089194;28;20247;-60
2021/09/30 07:09:12;;;;;;;61.87;47.23;;;;;20.70;101440.00;;;;2083985;28;20681;-58
2021/09/30 07:10:13;;;;;;;64.67;45.87;;;;;20.70;101445.00;;;;2086040;28;20220;-59
2021/09/30 07:11:13;;;;;;;64.13;47.67;;;;;20.70;101446.00;;;;2086137;28;20243;-54
2021/09/30 07:12:13;;;;;;;59.83;46.90;;;;;20.70;101442.00;;;;2085890;28;20209;-56
2021/09/30 07:13:14;;;;;;;56.77;44.13;;;;;20.70;101443.00;;;;2078477;28;20213;-56
2021/09/30 07:14:14;;;;;;;62.80;46.50;;;;;20.70;101442.00;;;;2100972;28;20207;-54
2021/09/30 07:15:15;;;;;;;55.50;43.90;;;;;20.70;101449.00;;;;2102913;28;20211;-57
2021/09/30 07:16:15;;;;;;;61.83;45.77;;;;;20.70;101453.00;;;;2094871;28;20208;-56
2021/09/30 07:17:16;;;;;;;63.93;45.17;;;;;20.70;101454.00;;;;2095073;28;20576;-55
2021/09/30 07:18:18;;;;;;;56.50;45.20;;;;;20.70;101453.00;;;;2094564;28;20224;-57
2021/09/30 07:19:18;;;;;;;61.15;45.20;;;;;20.70;101463.00;;;;2093577;28;20204;-57
2021/09/30 07:20:19;;;;;;;54.33;43.67;;;;;20.70;101451.00;;;;2095348;28;20729;-57
2021/09/30 07:21:19;;;;;;;54.13;42.70;;;;;20.70;101459.00;;;;2094134;28;20327;-56
2021/09/30 07:22:19;;;;;;;55.30;44.07;;;;;20.60;101463.00;;;;2094825;28;20219;-56
2021/09/30 07:23:20;;;;;;;57.43;43.77;;;;;20.70;101463.00;;;;2095112;28;20219;-54
2021/09/30 07:24:21;;;;;;;56.17;44.63;;;;;20.70;101462.00;;;;2094794;28;20216;-55
2021/09/30 07:25:24;;;;;;;52.20;42.33;;;;;20.70;101456.00;;;;2094922;28;20446;-56
2021/09/30 07:26:25;;;;;;;56.55;43.90;;;;;20.70;101459.00;;;;2094385;28;20211;-56
2021/09/30 07:27:25;;;;;;;51.10;41.90;;;;;20.70;101459.00;;;;2095113;28;20283;-56
2021/09/30 07:28:27;;;;;;;50.27;41.00;;;;;20.80;101473.00;;;;2095300;28;20265;-54
2021/09/30 07:29:28;;;;;;;53.40;41.38;;;;;20.80;101465.00;;;;2094352;28;20239;-55
2021/09/30 07:30:28;;;;;;;55.60;42.37;;;;;20.80;101464.00;;;;2094825;28;20231;-55
2021/09/30 07:31:28;;;;;;;52.47;41.17;;;;;20.80;101467.00;;;;2090808;28;20212;-56
2021/09/30 07:32:29;;;;;;;52.60;41.90;;;;;20.80;101462.00;;;;2086882;28;20205;-56
2021/09/30 07:33:29;;;;;;;55.00;42.60;;;;;20.80;101462.00;;;;2086330;28;20270;-57
2021/09/30 07:34:30;;;;;;;58.77;42.50;;;;;20.80;101457.00;;;;2086789;28;20217;-56
2021/09/30 07:35:30;;;;;;;53.37;40.63;;;;;20.80;101453.00;;;;2086418;28;20270;-55
2021/09/30 07:36:30;;;;;;;54.70;41.67;;;;;20.80;101461.00;;;;2087305;28;20215;-56
2021/09/30 07:37:31;;;;;;;53.30;40.67;;;;;20.80;101460.00;;;;2086978;28;20220;-55
2021/09/30 07:38:31;;;;;;;48.40;39.30;;;;;20.80;101470.00;;;;2089343;28;20291;-54
2021/09/30 07:39:31;;;;;;;52.60;40.30;;;;;20.80;101465.00;;;;2086386;28;20316;-57
2021/09/30 07:40:32;;;;;;;47.20;37.90;;;;;20.80;101477.00;;;;2086830;28;20223;-56
2021/09/30 07:41:33;;;;;;;51.00;39.80;;;;;20.80;101466.00;;;;2083882;28;20413;-54
2021/09/30 07:42:33;;;;;;;51.13;39.63;;;;;20.80;101460.00;;;;2085599;28;20232;-55
2021/09/30 07:43:33;;;;;;;48.20;40.57;;;;;20.80;101460.00;;;;2086205;28;20447;-56
2021/09/30 07:44:34;;;;;;;47.50;38.73;;;;;20.80;101463.00;;;;2086673;28;20857;-55
2021/09/30 07:45:35;;;;;;;50.42;38.40;;;;;20.80;101452.00;;;;2086730;28;20212;-56
2021/09/30 07:46:37;;;;;;;45.47;37.40;;;;;20.80;101464.00;;;;2086493;28;20723;-56
2021/09/30 07:47:37;;;;;;;47.13;37.28;;;;;20.80;101453.00;;;;2086634;28;20224;-56